sensor_id;sensor_type;location;lat;lon;timestamp;pressure;altitude;pressure_sealevel;temperature;humidity
39267;BME280;24967;51.154;13.812;2023-06-04T00:00:07;99946.44;;;10.80;52.74
39267;BME280;24967;51.154;13.812;2023-06-04T00:02:34;99942.94;;;10.80;52.53
39267;BME280;24967;51.154;13.812;2023-06-04T00:05:00;99936.25;;;10.75;52.87
39267;BME280;24967;51.154;13.812;2023-06-04T00:07:27;99936.66;;;10.71;53.11
39267;BME280;24967;51.154;13.812;2023-06-04T00:09:55;99940.47;;;10.68;53.14
39267;BME280;24967;51.154;13.812;2023-06-04T00:12:21;99944.63;;;10.61;53.13
39267;BME280;24967;51.154;13.812;2023-06-04T00:14:47;99940.03;;;10.53;54.17
39267;BME280;24967;51.154;13.812;2023-06-04T00:17:14;99933.19;;;10.51;54.43
39267;BME280;24967;51.154;13.812;2023-06-04T00:19:41;99934.03;;;10.51;54.43
39267;BME280;24967;51.154;13.812;2023-06-04T00:22:07;99945.47;;;10.52;54.78
39267;BME280;24967;51.154;13.812;2023-06-04T00:24:35;99930.66;;;10.49;54.84
39267;BME280;24967;51.154;13.812;2023-06-04T00:27:03;99932.47;;;10.49;55.03
39267;BME280;24967;51.154;13.812;2023-06-04T00:29:30;99932.31;;;10.41;55.12
39267;BME280;24967;51.154;13.812;2023-06-04T00:31:56;99935.56;;;10.44;55.43
39267;BME280;24967;51.154;13.812;2023-06-04T00:34:23;99929.53;;;10.42;55.20
39267;BME280;24967;51.154;13.812;2023-06-04T00:36:49;99925.63;;;10.27;55.71
39267;BME280;24967;51.154;13.812;2023-06-04T00:39:16;99927.84;;;10.31;55.21
39267;BME280;24967;51.154;13.812;2023-06-04T00:41:42;99918.31;;;10.19;54.85
39267;BME280;24967;51.154;13.812;2023-06-04T00:44:10;99922.50;;;10.12;54.54
39267;BME280;24967;51.154;13.812;2023-06-04T00:46:36;99917.19;;;10.02;54.38
39267;BME280;24967;51.154;13.812;2023-06-04T00:49:04;99922.50;;;9.93;55.12
39267;BME280;24967;51.154;13.812;2023-06-04T00:51:31;99922.75;;;9.90;55.00
39267;BME280;24967;51.154;13.812;2023-06-04T00:53:59;99915.91;;;9.87;55.64
39267;BME280;24967;51.154;13.812;2023-06-04T00:56:26;99918.28;;;9.90;55.13
39267;BME280;24967;51.154;13.812;2023-06-04T00:58:53;99921.06;;;9.89;55.81
39267;BME280;24967;51.154;13.812;2023-06-04T01:01:26;99912.69;;;9.83;55.75
39267;BME280;24967;51.154;13.812;2023-06-04T01:03:57;99910.69;;;9.76;56.11
39267;BME280;24967;51.154;13.812;2023-06-04T01:06:31;99914.72;;;9.70;56.40
39267;BME280;24967;51.154;13.812;2023-06-04T01:08:59;99917.13;;;9.73;56.69
39267;BME280;24967;51.154;13.812;2023-06-04T01:11:33;99914.28;;;9.65;56.46
39267;BME280;24967;51.154;13.812;2023-06-04T01:14:00;99915.09;;;9.56;56.20
39267;BME280;24967;51.154;13.812;2023-06-04T01:16:33;99910.78;;;9.55;56.20
39267;BME280;24967;51.154;13.812;2023-06-04T01:19:02;99913.59;;;9.53;56.78
39267;BME280;24967;51.154;13.812;2023-06-04T01:21:34;99915.19;;;9.35;57.33
39267;BME280;24967;51.154;13.812;2023-06-04T01:24:04;99905.44;;;9.45;56.83
39267;BME280;24967;51.154;13.812;2023-06-04T01:26:32;99912.97;;;9.40;56.72
39267;BME280;24967;51.154;13.812;2023-06-04T01:28:59;99907.66;;;9.40;56.78
39267;BME280;24967;51.154;13.812;2023-06-04T01:31:28;99913.94;;;9.39;56.89
39267;BME280;24967;51.154;13.812;2023-06-04T01:33:58;99904.31;;;9.38;56.85
39267;BME280;24967;51.154;13.812;2023-06-04T01:36:27;99907.09;;;9.36;56.71
39267;BME280;24967;51.154;13.812;2023-06-04T01:38:54;99906.63;;;9.31;56.82
39267;BME280;24967;51.154;13.812;2023-06-04T01:41:21;99906.50;;;9.23;56.61
39267;BME280;24967;51.154;13.812;2023-06-04T01:43:47;99904.78;;;9.22;55.99
39267;BME280;24967;51.154;13.812;2023-06-04T01:46:14;99911.19;;;9.20;56.33
39267;BME280;24967;51.154;13.812;2023-06-04T01:48:41;99914.81;;;9.18;56.77
39267;BME280;24967;51.154;13.812;2023-06-04T01:51:08;99904.75;;;9.12;56.20
39267;BME280;24967;51.154;13.812;2023-06-04T01:53:34;99907.53;;;9.11;56.52
39267;BME280;24967;51.154;13.812;2023-06-04T01:56:01;99909.06;;;9.13;56.74
39267;BME280;24967;51.154;13.812;2023-06-04T01:58:27;99905.16;;;9.08;57.13
39267;BME280;24967;51.154;13.812;2023-06-04T02:01:00;99905.16;;;9.08;57.43
39267;BME280;24967;51.154;13.812;2023-06-04T02:03:28;99914.34;;;9.04;57.89
39267;BME280;24967;51.154;13.812;2023-06-04T02:06:03;99904.13;;;8.99;58.09
39267;BME280;24967;51.154;13.812;2023-06-04T02:08:32;99911.25;;;8.99;57.90
39267;BME280;24967;51.154;13.812;2023-06-04T02:10:59;99906.19;;;8.95;58.43
39267;BME280;24967;51.154;13.812;2023-06-04T02:13:25;99908.16;;;8.93;58.21
39267;BME280;24967;51.154;13.812;2023-06-04T02:15:52;99912.00;;;8.89;58.17
39267;BME280;24967;51.154;13.812;2023-06-04T02:18:19;99914.09;;;8.86;57.31
39267;BME280;24967;51.154;13.812;2023-06-04T02:20:48;99909.03;;;8.83;57.51
39267;BME280;24967;51.154;13.812;2023-06-04T02:23:18;99912.38;;;8.75;57.62
39267;BME280;24967;51.154;13.812;2023-06-04T02:25:46;99909.97;;;8.72;58.41
39267;BME280;24967;51.154;13.812;2023-06-04T02:28:14;99915.91;;;8.64;58.24
39267;BME280;24967;51.154;13.812;2023-06-04T02:30:41;99909.91;;;8.62;58.04
39267;BME280;24967;51.154;13.812;2023-06-04T02:33:07;99917.16;;;8.60;58.38
39267;BME280;24967;51.154;13.812;2023-06-04T02:35:35;99916.56;;;8.57;58.14
39267;BME280;24967;51.154;13.812;2023-06-04T02:38:01;99916.56;;;8.57;57.81
39267;BME280;24967;51.154;13.812;2023-06-04T02:40:29;99925.97;;;8.49;57.83
39267;BME280;24967;51.154;13.812;2023-06-04T02:42:56;99919.53;;;8.42;58.19
39267;BME280;24967;51.154;13.812;2023-06-04T02:45:22;99920.09;;;8.35;58.06
39267;BME280;24967;51.154;13.812;2023-06-04T02:47:49;99924.81;;;8.31;58.96
39267;BME280;24967;51.154;13.812;2023-06-04T02:50:16;99920.56;;;8.08;59.73
39267;BME280;24967;51.154;13.812;2023-06-04T02:52:42;99923.34;;;8.06;59.74
39267;BME280;24967;51.154;13.812;2023-06-04T02:55:09;99915.78;;;8.01;60.16
39267;BME280;24967;51.154;13.812;2023-06-04T02:57:39;99920.38;;;7.99;60.28
39267;BME280;24967;51.154;13.812;2023-06-04T03:00:08;99917.88;;;7.87;60.47
39267;BME280;24967;51.154;13.812;2023-06-04T03:02:38;99913.25;;;8.00;60.46
39267;BME280;24967;51.154;13.812;2023-06-04T03:05:05;99921.69;;;8.05;60.18
39267;BME280;24967;51.154;13.812;2023-06-04T03:07:31;99930.91;;;8.11;59.71
39267;BME280;24967;51.154;13.812;2023-06-04T03:09:58;99919.47;;;8.10;59.83
39267;BME280;24967;51.154;13.812;2023-06-04T03:12:24;99925.63;;;8.11;59.71
39267;BME280;24967;51.154;13.812;2023-06-04T03:14:52;99921.53;;;8.07;59.23
39267;BME280;24967;51.154;13.812;2023-06-04T03:17:19;99925.88;;;8.08;59.24
39267;BME280;24967;51.154;13.812;2023-06-04T03:19:45;99924.44;;;8.03;59.55
39267;BME280;24967;51.154;13.812;2023-06-04T03:22:13;99932.13;;;8.07;59.41
39267;BME280;24967;51.154;13.812;2023-06-04T03:24:40;99934.31;;;8.01;59.39
39267;BME280;24967;51.154;13.812;2023-06-04T03:27:08;99930.81;;;8.01;59.52
39267;BME280;24967;51.154;13.812;2023-06-04T03:29:35;99937.19;;;7.98;59.70
39267;BME280;24967;51.154;13.812;2023-06-04T03:32:04;99944.56;;;7.95;59.93
39267;BME280;24967;51.154;13.812;2023-06-04T03:34:31;99940.31;;;8.03;60.34
39267;BME280;24967;51.154;13.812;2023-06-04T03:36:58;99942.06;;;7.93;60.72
39267;BME280;24967;51.154;13.812;2023-06-04T03:39:25;99946.47;;;8.04;60.95
39267;BME280;24967;51.154;13.812;2023-06-04T03:41:52;99943.22;;;8.00;60.26
39267;BME280;24967;51.154;13.812;2023-06-04T03:44:20;99936.50;;;7.96;60.09
39267;BME280;24967;51.154;13.812;2023-06-04T03:46:46;99940.56;;;8.00;59.97
39267;BME280;24967;51.154;13.812;2023-06-04T03:49:14;99941.75;;;8.08;60.22
39267;BME280;24967;51.154;13.812;2023-06-04T03:51:42;99949.59;;;8.09;60.11
39267;BME280;24967;51.154;13.812;2023-06-04T03:54:09;99949.44;;;8.11;59.48
39267;BME280;24967;51.154;13.812;2023-06-04T03:56:36;99948.84;;;8.07;59.72
39267;BME280;24967;51.154;13.812;2023-06-04T03:59:03;99951.06;;;8.02;60.63
39267;BME280;24967;51.154;13.812;2023-06-04T04:01:29;99949.84;;;8.06;61.65
39267;BME280;24967;51.154;13.812;2023-06-04T04:03:56;99951.25;;;8.10;61.21
39267;BME280;24967;51.154;13.812;2023-06-04T04:06:23;99957.88;;;8.16;61.61
39267;BME280;24967;51.154;13.812;2023-06-04T04:08:50;99957.38;;;8.22;61.87
39267;BME280;24967;51.154;13.812;2023-06-04T04:11:16;99958.94;;;8.24;62.06
39267;BME280;24967;51.154;13.812;2023-06-04T04:13:45;99951.47;;;8.18;62.97
39267;BME280;24967;51.154;13.812;2023-06-04T04:16:11;99957.38;;;8.22;63.86
39267;BME280;24967;51.154;13.812;2023-06-04T04:18:38;99961.41;;;8.37;63.81
39267;BME280;24967;51.154;13.812;2023-06-04T04:21:04;99961.50;;;8.47;62.93
39267;BME280;24967;51.154;13.812;2023-06-04T04:23:32;99961.72;;;8.55;63.22
39267;BME280;24967;51.154;13.812;2023-06-04T04:25:59;99958.44;;;8.63;63.19
39267;BME280;24967;51.154;13.812;2023-06-04T04:28:27;99958.06;;;8.67;63.79
39267;BME280;24967;51.154;13.812;2023-06-04T04:30:55;99962.84;;;8.74;64.01
39267;BME280;24967;51.154;13.812;2023-06-04T04:33:22;99961.97;;;8.84;64.07
39267;BME280;24967;51.154;13.812;2023-06-04T04:35:49;99956.81;;;8.92;63.81
39267;BME280;24967;51.154;13.812;2023-06-04T04:38:17;99964.28;;;8.99;64.82
39267;BME280;24967;51.154;13.812;2023-06-04T04:40:45;99956.75;;;9.04;64.74
39267;BME280;24967;51.154;13.812;2023-06-04T04:43:12;99957.78;;;9.12;64.36
39267;BME280;24967;51.154;13.812;2023-06-04T04:45:39;99960.22;;;9.25;65.70
39267;BME280;24967;51.154;13.812;2023-06-04T04:48:05;99958.91;;;9.40;65.43
39267;BME280;24967;51.154;13.812;2023-06-04T04:50:32;99957.28;;;9.49;64.75
39267;BME280;24967;51.154;13.812;2023-06-04T04:52:58;99962.59;;;9.59;63.84
39267;BME280;24967;51.154;13.812;2023-06-04T04:55:26;99959.69;;;9.62;64.40
39267;BME280;24967;51.154;13.812;2023-06-04T04:57:54;99965.88;;;9.72;64.17
39267;BME280;24967;51.154;13.812;2023-06-04T05:00:20;99958.81;;;9.92;63.88
39267;BME280;24967;51.154;13.812;2023-06-04T05:02:47;99959.97;;;10.09;63.11
39267;BME280;24967;51.154;13.812;2023-06-04T05:05:13;99960.81;;;10.19;62.54
39267;BME280;24967;51.154;13.812;2023-06-04T05:07:40;99965.91;;;10.32;62.74
39267;BME280;24967;51.154;13.812;2023-06-04T05:10:07;99969.84;;;10.47;62.31
39267;BME280;24967;51.154;13.812;2023-06-04T05:12:33;99961.72;;;10.59;62.87
39267;BME280;24967;51.154;13.812;2023-06-04T05:15:01;99969.97;;;10.75;63.09
39267;BME280;24967;51.154;13.812;2023-06-04T05:17:28;99961.84;;;10.86;62.72
39267;BME280;24967;51.154;13.812;2023-06-04T05:19:56;99964.78;;;11.40;61.19
39267;BME280;24967;51.154;13.812;2023-06-04T05:22:30;99968.41;;;12.13;60.51
39267;BME280;24967;51.154;13.812;2023-06-04T05:24:58;99965.63;;;12.95;58.22
39267;BME280;24967;51.154;13.812;2023-06-04T05:27:26;99968.31;;;13.81;56.98
39267;BME280;24967;51.154;13.812;2023-06-04T05:29:53;99967.06;;;14.69;54.52
39267;BME280;24967;51.154;13.812;2023-06-04T05:32:21;99959.75;;;15.51;49.72
39267;BME280;24967;51.154;13.812;2023-06-04T05:34:48;99964.63;;;16.26;47.11
39267;BME280;24967;51.154;13.812;2023-06-04T05:37:15;99961.19;;;16.86;43.82
39267;BME280;24967;51.154;13.812;2023-06-04T05:39:42;99968.50;;;17.60;42.85
39267;BME280;24967;51.154;13.812;2023-06-04T05:42:09;99964.19;;;17.89;41.61
39267;BME280;24967;51.154;13.812;2023-06-04T05:44:35;99972.84;;;18.42;40.50
39267;BME280;24967;51.154;13.812;2023-06-04T05:47:02;99962.38;;;19.18;38.90
39267;BME280;24967;51.154;13.812;2023-06-04T05:49:30;99965.19;;;19.66;36.71
39267;BME280;24967;51.154;13.812;2023-06-04T05:51:56;99971.41;;;20.08;35.92
39267;BME280;24967;51.154;13.812;2023-06-04T05:54:23;99969.31;;;20.58;35.88
39267;BME280;24967;51.154;13.812;2023-06-04T05:56:49;99967.66;;;20.90;35.87
39267;BME280;24967;51.154;13.812;2023-06-04T05:59:15;99962.66;;;21.34;34.55
39267;BME280;24967;51.154;13.812;2023-06-04T06:01:42;99967.78;;;21.82;34.50
39267;BME280;24967;51.154;13.812;2023-06-04T06:04:09;99967.25;;;22.05;33.41
39267;BME280;24967;51.154;13.812;2023-06-04T06:06:37;99964.69;;;22.61;34.38
39267;BME280;24967;51.154;13.812;2023-06-04T06:09:04;99975.69;;;22.98;32.65
39267;BME280;24967;51.154;13.812;2023-06-04T06:11:31;99972.38;;;23.21;32.53
39267;BME280;24967;51.154;13.812;2023-06-04T06:13:57;99973.06;;;23.35;31.97
39267;BME280;24967;51.154;13.812;2023-06-04T06:16:23;99973.97;;;23.29;32.05
39267;BME280;24967;51.154;13.812;2023-06-04T06:18:50;99972.88;;;23.55;32.21
39267;BME280;24967;51.154;13.812;2023-06-04T06:21:16;99977.78;;;23.65;31.80
39267;BME280;24967;51.154;13.812;2023-06-04T06:23:44;99973.53;;;23.75;32.54
39267;BME280;24967;51.154;13.812;2023-06-04T06:26:11;99968.00;;;23.82;32.79
39267;BME280;24967;51.154;13.812;2023-06-04T06:28:39;99972.94;;;23.48;31.96
39267;BME280;24967;51.154;13.812;2023-06-04T06:31:05;99966.81;;;23.53;31.00
39267;BME280;24967;51.154;13.812;2023-06-04T06:33:32;99977.06;;;23.51;31.79
39267;BME280;24967;51.154;13.812;2023-06-04T06:35:58;99983.31;;;23.33;30.87
39267;BME280;24967;51.154;13.812;2023-06-04T06:38:25;99990.13;;;23.17;31.51
39267;BME280;24967;51.154;13.812;2023-06-04T06:40:53;99989.09;;;23.18;31.86
39267;BME280;24967;51.154;13.812;2023-06-04T06:43:20;99991.94;;;23.23;31.69
39267;BME280;24967;51.154;13.812;2023-06-04T06:45:46;99989.47;;;23.22;31.56
39267;BME280;24967;51.154;13.812;2023-06-04T06:48:13;99986.09;;;22.70;32.99
39267;BME280;24967;51.154;13.812;2023-06-04T06:50:39;99982.38;;;22.96;33.50
39267;BME280;24967;51.154;13.812;2023-06-04T06:53:06;99987.94;;;22.76;32.44
39267;BME280;24967;51.154;13.812;2023-06-04T06:55:32;99988.97;;;22.75;32.22
39267;BME280;24967;51.154;13.812;2023-06-04T06:58:00;99993.41;;;23.01;32.80
39267;BME280;24967;51.154;13.812;2023-06-04T07:00:26;99989.47;;;23.22;31.34
39267;BME280;24967;51.154;13.812;2023-06-04T07:02:54;99990.47;;;23.27;31.05
39267;BME280;24967;51.154;13.812;2023-06-04T07:05:20;99996.31;;;23.49;31.40
39267;BME280;24967;51.154;13.812;2023-06-04T07:07:47;99986.66;;;23.53;32.26
39267;BME280;24967;51.154;13.812;2023-06-04T07:10:14;99988.88;;;23.63;30.58
39267;BME280;24967;51.154;13.812;2023-06-04T07:12:40;99985.47;;;23.68;30.54
39267;BME280;24967;51.154;13.812;2023-06-04T07:15:08;99988.16;;;23.49;31.55
39267;BME280;24967;51.154;13.812;2023-06-04T07:17:35;99981.22;;;23.53;30.73
39267;BME280;24967;51.154;13.812;2023-06-04T07:20:01;99986.75;;;22.90;31.73
39267;BME280;24967;51.154;13.812;2023-06-04T07:22:29;99988.19;;;22.99;32.20
39267;BME280;24967;51.154;13.812;2023-06-04T07:24:55;99990.78;;;22.81;32.36
39267;BME280;24967;51.154;13.812;2023-06-04T07:27:22;99978.88;;;22.89;32.42
39267;BME280;24967;51.154;13.812;2023-06-04T07:29:49;99984.44;;;23.00;31.24
39267;BME280;24967;51.154;13.812;2023-06-04T07:32:17;99983.56;;;23.06;31.17
39267;BME280;24967;51.154;13.812;2023-06-04T07:34:43;99987.63;;;22.91;31.92
39267;BME280;24967;51.154;13.812;2023-06-04T07:37:10;99981.34;;;22.90;32.21
39267;BME280;24967;51.154;13.812;2023-06-04T07:39:38;99985.91;;;22.96;32.23
39267;BME280;24967;51.154;13.812;2023-06-04T07:42:05;99985.81;;;23.09;31.22
39267;BME280;24967;51.154;13.812;2023-06-04T07:44:32;99986.56;;;22.92;31.41
39267;BME280;24967;51.154;13.812;2023-06-04T07:46:58;99984.44;;;23.25;31.07
39267;BME280;24967;51.154;13.812;2023-06-04T07:49:26;99988.66;;;23.21;32.13
39267;BME280;24967;51.154;13.812;2023-06-04T07:51:53;99985.16;;;23.14;31.42
39267;BME280;24967;51.154;13.812;2023-06-04T07:54:19;99977.44;;;23.36;29.38
39267;BME280;24967;51.154;13.812;2023-06-04T07:56:46;99975.63;;;23.30;29.69
39267;BME280;24967;51.154;13.812;2023-06-04T07:59:12;99980.38;;;23.35;31.39
39267;BME280;24967;51.154;13.812;2023-06-04T08:01:38;99981.81;;;23.37;30.06
39267;BME280;24967;51.154;13.812;2023-06-04T08:04:05;99975.78;;;23.53;29.13
39267;BME280;24967;51.154;13.812;2023-06-04T08:06:33;99971.63;;;23.51;27.21
39267;BME280;24967;51.154;13.812;2023-06-04T08:09:00;99982.44;;;23.14;26.91
39267;BME280;24967;51.154;13.812;2023-06-04T08:11:27;99969.66;;;23.21;27.05
39267;BME280;24967;51.154;13.812;2023-06-04T08:13:54;99977.03;;;23.32;26.59
39267;BME280;24967;51.154;13.812;2023-06-04T08:16:20;99974.75;;;23.54;27.03
39267;BME280;24967;51.154;13.812;2023-06-04T08:18:47;99981.53;;;23.45;27.05
39267;BME280;24967;51.154;13.812;2023-06-04T08:21:13;99981.66;;;23.50;26.94
39267;BME280;24967;51.154;13.812;2023-06-04T08:23:43;99977.91;;;23.51;27.22
39267;BME280;24967;51.154;13.812;2023-06-04T08:26:10;99974.44;;;23.69;27.53
39267;BME280;24967;51.154;13.812;2023-06-04T08:28:36;99975.78;;;23.79;25.49
39267;BME280;24967;51.154;13.812;2023-06-04T08:31:04;99974.31;;;24.13;28.15
39267;BME280;24967;51.154;13.812;2023-06-04T08:33:30;99970.88;;;24.06;26.51
39267;BME280;24967;51.154;13.812;2023-06-04T08:35:57;99980.25;;;24.21;25.83
39267;BME280;24967;51.154;13.812;2023-06-04T08:38:23;99970.72;;;24.31;26.38
39267;BME280;24967;51.154;13.812;2023-06-04T08:40:52;99976.38;;;24.29;26.74
39267;BME280;24967;51.154;13.812;2023-06-04T08:43:19;99979.69;;;24.31;24.91
39267;BME280;24967;51.154;13.812;2023-06-04T08:45:49;99980.84;;;24.42;26.17
39267;BME280;24967;51.154;13.812;2023-06-04T08:48:17;99981.72;;;24.54;26.12
39267;BME280;24967;51.154;13.812;2023-06-04T08:50:45;99980.97;;;24.47;25.83
39267;BME280;24967;51.154;13.812;2023-06-04T08:53:15;99980.59;;;24.74;25.79
39267;BME280;24967;51.154;13.812;2023-06-04T08:55:42;99979.75;;;25.27;26.28
39267;BME280;24967;51.154;13.812;2023-06-04T08:58:10;99978.41;;;25.06;26.01
39267;BME280;24967;51.154;13.812;2023-06-04T09:00:38;99982.97;;;24.82;25.50
39267;BME280;24967;51.154;13.812;2023-06-04T09:03:04;99977.72;;;24.68;26.88
39267;BME280;24967;51.154;13.812;2023-06-04T09:05:31;99976.38;;;25.01;26.17
39267;BME280;24967;51.154;13.812;2023-06-04T09:08:00;99975.44;;;25.07;25.49
39267;BME280;24967;51.154;13.812;2023-06-04T09:10:29;99972.91;;;24.71;25.04
39267;BME280;24967;51.154;13.812;2023-06-04T09:12:57;99977.34;;;25.07;26.73
39267;BME280;24967;51.154;13.812;2023-06-04T09:15:28;99969.97;;;24.96;25.79
39267;BME280;24967;51.154;13.812;2023-06-04T09:17:55;99972.41;;;25.16;25.40
39267;BME280;24967;51.154;13.812;2023-06-04T09:20:22;99978.19;;;25.19;25.90
39267;BME280;24967;51.154;13.812;2023-06-04T09:22:49;99970.91;;;24.89;25.07
39267;BME280;24967;51.154;13.812;2023-06-04T09:25:22;99976.03;;;25.09;25.37
39267;BME280;24967;51.154;13.812;2023-06-04T09:27:50;99975.44;;;25.07;25.01
39267;BME280;24967;51.154;13.812;2023-06-04T09:30:17;99981.41;;;25.16;26.03
39267;BME280;24967;51.154;13.812;2023-06-04T09:32:45;99978.91;;;25.15;25.52
39267;BME280;24967;51.154;13.812;2023-06-04T09:35:13;99978.91;;;25.26;25.45
39267;BME280;24967;51.154;13.812;2023-06-04T09:37:40;99980.69;;;25.32;24.42
39267;BME280;24967;51.154;13.812;2023-06-04T09:40:07;99972.28;;;25.69;25.38
39267;BME280;24967;51.154;13.812;2023-06-04T09:42:44;99966.34;;;25.72;25.00
39267;BME280;24967;51.154;13.812;2023-06-04T09:45:11;99979.16;;;25.60;25.55
39267;BME280;24967;51.154;13.812;2023-06-04T09:47:39;99969.31;;;25.59;24.62
39267;BME280;24967;51.154;13.812;2023-06-04T09:50:08;99985.78;;;25.52;25.15
39267;BME280;24967;51.154;13.812;2023-06-04T09:52:35;99974.75;;;25.59;24.53
39267;BME280;24967;51.154;13.812;2023-06-04T09:55:03;99967.84;;;25.80;24.28
39267;BME280;24967;51.154;13.812;2023-06-04T09:57:30;99963.19;;;26.04;24.69
39267;BME280;24967;51.154;13.812;2023-06-04T10:00:02;99970.78;;;26.02;25.27
39267;BME280;24967;51.154;13.812;2023-06-04T10:02:33;99975.84;;;25.81;24.26
39267;BME280;24967;51.154;13.812;2023-06-04T10:04:59;99977.72;;;25.46;25.45
39267;BME280;24967;51.154;13.812;2023-06-04T10:07:27;99970.22;;;25.76;25.89
39267;BME280;24967;51.154;13.812;2023-06-04T10:09:54;99965.06;;;26.15;25.23
39267;BME280;24967;51.154;13.812;2023-06-04T10:12:25;99952.16;;;26.11;25.35
39267;BME280;24967;51.154;13.812;2023-06-04T10:14:52;99957.63;;;26.39;25.02
39267;BME280;24967;51.154;13.812;2023-06-04T10:17:22;99963.13;;;26.56;24.77
39267;BME280;24967;51.154;13.812;2023-06-04T10:19:50;99960.50;;;26.61;23.69
39267;BME280;24967;51.154;13.812;2023-06-04T10:22:19;99965.94;;;26.33;23.84
39267;BME280;24967;51.154;13.812;2023-06-04T10:24:47;99968.53;;;25.99;24.12
39267;BME280;24967;51.154;13.812;2023-06-04T10:27:16;99962.06;;;25.76;24.78
39267;BME280;24967;51.154;13.812;2023-06-04T10:29:45;99963.97;;;25.76;24.27
39267;BME280;24967;51.154;13.812;2023-06-04T10:32:12;99958.56;;;25.41;24.62
39267;BME280;24967;51.154;13.812;2023-06-04T10:34:38;99971.69;;;25.44;24.89
39267;BME280;24967;51.154;13.812;2023-06-04T10:37:05;99971.94;;;25.54;26.36
39267;BME280;24967;51.154;13.812;2023-06-04T10:39:32;99965.88;;;25.75;24.23
39267;BME280;24967;51.154;13.812;2023-06-04T10:42:01;99966.69;;;25.76;24.65
39267;BME280;24967;51.154;13.812;2023-06-04T10:44:29;99964.69;;;25.83;24.76
39267;BME280;24967;51.154;13.812;2023-06-04T10:46:57;99966.22;;;26.19;25.27
39267;BME280;24967;51.154;13.812;2023-06-04T10:49:27;99968.25;;;25.60;23.80
39267;BME280;24967;51.154;13.812;2023-06-04T10:51:54;99966.81;;;25.69;24.14
39267;BME280;24967;51.154;13.812;2023-06-04T10:54:23;99955.00;;;26.16;25.65
39267;BME280;24967;51.154;13.812;2023-06-04T10:56:51;99963.75;;;26.46;24.36
39267;BME280;24967;51.154;13.812;2023-06-04T10:59:20;99960.31;;;26.51;24.88
39267;BME280;24967;51.154;13.812;2023-06-04T11:01:48;99962.41;;;26.61;24.54
39267;BME280;24967;51.154;13.812;2023-06-04T11:04:24;99958.28;;;26.92;24.06
39267;BME280;24967;51.154;13.812;2023-06-04T11:07:01;99953.63;;;26.59;23.89
39267;BME280;24967;51.154;13.812;2023-06-04T11:09:29;99956.06;;;26.72;24.78
39267;BME280;24967;51.154;13.812;2023-06-04T11:11:57;99950.81;;;26.54;24.12
39267;BME280;24967;51.154;13.812;2023-06-04T11:14:28;99948.94;;;26.54;24.35
39267;BME280;24967;51.154;13.812;2023-06-04T11:16:55;99955.06;;;26.33;23.65
39267;BME280;24967;51.154;13.812;2023-06-04T11:19:22;99955.22;;;26.43;25.29
39267;BME280;24967;51.154;13.812;2023-06-04T11:21:49;99948.13;;;26.42;24.59
39267;BME280;24967;51.154;13.812;2023-06-04T11:24:19;99943.94;;;26.22;23.86
39267;BME280;24967;51.154;13.812;2023-06-04T11:26:52;99951.81;;;26.07;24.56
39267;BME280;24967;51.154;13.812;2023-06-04T11:29:19;99951.28;;;25.93;24.87
39267;BME280;24967;51.154;13.812;2023-06-04T11:31:48;99947.53;;;25.83;24.33
39267;BME280;24967;51.154;13.812;2023-06-04T11:34:24;99944.56;;;25.84;24.32
39267;BME280;24967;51.154;13.812;2023-06-04T11:36:51;99947.97;;;25.91;24.46
39267;BME280;24967;51.154;13.812;2023-06-04T11:39:33;99945.69;;;26.28;23.64
39267;BME280;24967;51.154;13.812;2023-06-04T11:42:04;99948.09;;;26.25;24.26
39267;BME280;24967;51.154;13.812;2023-06-04T11:44:34;99942.88;;;26.23;24.58
39267;BME280;24967;51.154;13.812;2023-06-04T11:47:05;99949.78;;;26.43;24.83
39267;BME280;24967;51.154;13.812;2023-06-04T11:49:41;99953.88;;;26.28;24.16
39267;BME280;24967;51.154;13.812;2023-06-04T11:52:14;99944.09;;;25.75;24.66
39267;BME280;24967;51.154;13.812;2023-06-04T11:54:41;99944.63;;;26.30;23.97
39267;BME280;24967;51.154;13.812;2023-06-04T11:57:08;99939.44;;;26.73;24.53
39267;BME280;24967;51.154;13.812;2023-06-04T11:59:35;99946.56;;;27.08;24.35
39267;BME280;24967;51.154;13.812;2023-06-04T12:02:04;99944.91;;;27.24;22.96
39267;BME280;24967;51.154;13.812;2023-06-04T12:04:33;99941.47;;;27.51;23.33
39267;BME280;24967;51.154;13.812;2023-06-04T12:07:08;99943.22;;;27.40;22.73
39267;BME280;24967;51.154;13.812;2023-06-04T12:09:36;99946.13;;;26.66;23.05
39267;BME280;24967;51.154;13.812;2023-06-04T12:12:05;99942.19;;;26.16;24.40
39267;BME280;24967;51.154;13.812;2023-06-04T12:14:35;99938.69;;;26.33;24.06
39267;BME280;24967;51.154;13.812;2023-06-04T12:17:06;99951.72;;;26.59;23.52
39267;BME280;24967;51.154;13.812;2023-06-04T12:19:44;99937.78;;;26.89;23.77
39267;BME280;24967;51.154;13.812;2023-06-04T12:22:13;99926.00;;;27.17;24.78
39267;BME280;24967;51.154;13.812;2023-06-04T12:24:48;99928.88;;;27.50;23.53
39267;BME280;24967;51.154;13.812;2023-06-04T12:27:26;99936.13;;;27.05;22.23
39267;BME280;24967;51.154;13.812;2023-06-04T12:30:01;99938.44;;;27.13;23.27
39267;BME280;24967;51.154;13.812;2023-06-04T12:32:30;99940.59;;;27.11;22.43
39267;BME280;24967;51.154;13.812;2023-06-04T12:34:58;99939.91;;;27.38;22.88
39267;BME280;24967;51.154;13.812;2023-06-04T12:37:25;99943.06;;;27.13;22.73
39267;BME280;24967;51.154;13.812;2023-06-04T12:39:53;99935.69;;;27.13;22.19
39267;BME280;24967;51.154;13.812;2023-06-04T12:42:22;99940.13;;;27.14;21.75
39267;BME280;24967;51.154;13.812;2023-06-04T12:44:52;99940.66;;;26.49;22.66
39267;BME280;24967;51.154;13.812;2023-06-04T12:47:23;99932.59;;;26.42;22.83
39267;BME280;24967;51.154;13.812;2023-06-04T12:49:52;99939.47;;;26.45;22.88
39267;BME280;24967;51.154;13.812;2023-06-04T12:52:21;99929.09;;;26.59;22.45
39267;BME280;24967;51.154;13.812;2023-06-04T12:54:48;99929.53;;;26.84;22.05